createdAt,value
2023-02-17T00:01:32.279Z,5.03
2023-02-17T00:04:00.109Z,5.30
2023-02-17T00:06:29.768Z,4.75
2023-02-17T00:08:57.745Z,4.30
2023-02-17T00:11:24.821Z,3.88
2023-02-17T00:13:53.961Z,4.20
2023-02-17T00:16:25.110Z,5.00
2023-02-17T00:19:00.527Z,5.05
2023-02-17T00:21:30.134Z,6.55
2023-02-17T00:23:58.249Z,6.65
2023-02-17T00:26:25.078Z,5.53
2023-02-17T00:28:51.821Z,5.88
2023-02-17T00:31:22.013Z,5.72
2023-02-17T00:33:49.183Z,6.07
2023-02-17T00:36:18.832Z,5.75
2023-02-17T00:38:46.757Z,7.15
2023-02-17T00:41:13.455Z,6.97
2023-02-17T00:43:40.203Z,5.53
2023-02-17T00:46:07.504Z,6.20
2023-02-17T00:48:34.469Z,9.00
2023-02-17T00:51:01.226Z,7.15
2023-02-17T00:53:27.954Z,6.40
2023-02-17T00:55:54.823Z,5.53
2023-02-17T00:58:21.532Z,6.50
2023-02-17T01:00:48.256Z,6.55
2023-02-17T01:03:15.078Z,5.10
2023-02-17T01:05:43.670Z,6.05
2023-02-17T01:08:11.216Z,5.65
2023-02-17T01:10:42.076Z,5.47
2023-02-17T01:13:09.525Z,4.93
2023-02-17T01:15:46.188Z,5.35
2023-02-17T01:18:13.281Z,4.95
2023-02-17T01:20:41.514Z,4.13
2023-02-17T01:23:09.420Z,4.28
2023-02-17T01:25:40.786Z,3.17
2023-02-17T01:28:08.922Z,3.80
2023-02-17T01:30:35.783Z,3.28
2023-02-17T01:33:02.604Z,3.47
2023-02-17T01:35:29.308Z,2.42
2023-02-17T01:37:56.006Z,2.28
2023-02-17T01:40:22.821Z,1.65
2023-02-17T01:42:49.469Z,1.23
2023-02-17T01:45:18.926Z,1.30
2023-02-17T01:47:59.962Z,1.10
2023-02-17T01:50:32.614Z,1.00
2023-02-17T01:53:01.333Z,1.00
2023-02-17T01:55:28.923Z,0.90
2023-02-17T01:58:00.245Z,1.10
2023-02-17T02:00:29.417Z,0.95
2023-02-17T02:02:57.230Z,0.85
2023-02-17T02:05:24.055Z,0.90
2023-02-17T02:07:52.551Z,0.80
2023-02-17T02:10:19.819Z,0.90
2023-02-17T02:12:46.997Z,0.93
2023-02-17T02:15:22.996Z,0.90
2023-02-17T02:18:17.593Z,0.90
2023-02-17T02:21:14.807Z,0.80
2023-02-17T02:24:09.795Z,0.90
2023-02-17T02:26:59.630Z,0.80
2023-02-17T02:29:49.553Z,0.82
2023-02-17T02:32:40.359Z,1.00
2023-02-17T02:35:19.303Z,0.93
2023-02-17T02:38:01.186Z,0.80
2023-02-17T02:40:32.626Z,0.90
2023-02-17T02:43:02.474Z,0.90
2023-02-17T02:45:29.525Z,0.80
2023-02-17T02:47:57.739Z,0.90
2023-02-17T02:50:59.684Z,0.80
2023-02-17T02:53:41.530Z,0.88
2023-02-17T02:56:39.180Z,0.75
2023-02-17T02:59:14.875Z,0.77
2023-02-17T03:02:29.793Z,0.80
2023-02-17T03:05:08.068Z,0.85
2023-02-17T03:07:58.707Z,0.82
2023-02-17T03:10:25.697Z,0.82
2023-02-17T03:12:52.838Z,0.80
2023-02-17T03:15:34.692Z,0.80
2023-02-17T03:18:02.997Z,1.05
2023-02-17T03:20:34.753Z,0.80
2023-02-17T03:23:01.581Z,0.80
2023-02-17T03:25:28.302Z,0.80
2023-02-17T03:27:55.048Z,0.70
2023-02-17T03:30:21.799Z,0.88
2023-02-17T03:32:48.540Z,0.80
2023-02-17T03:35:15.462Z,0.70
2023-02-17T03:37:42.205Z,0.80
2023-02-17T03:40:09.432Z,0.80
2023-02-17T03:42:36.196Z,0.88
2023-02-17T03:45:02.998Z,0.90
2023-02-17T03:47:29.688Z,0.80
2023-02-17T03:49:56.380Z,0.70
2023-02-17T03:52:23.093Z,0.70
2023-02-17T03:54:49.853Z,0.80
2023-02-17T03:57:16.613Z,0.80
2023-02-17T03:59:43.393Z,0.80
2023-02-17T04:02:10.202Z,0.80
2023-02-17T04:04:37.008Z,0.80
2023-02-17T04:07:03.703Z,0.80
2023-02-17T04:09:30.425Z,0.80
2023-02-17T04:11:57.081Z,0.80
2023-02-17T04:14:23.801Z,0.80
2023-02-17T04:16:50.516Z,0.80
2023-02-17T04:19:17.222Z,0.80
2023-02-17T04:21:44.171Z,0.80
2023-02-17T04:24:10.909Z,0.80
2023-02-17T04:26:37.622Z,0.80
2023-02-17T04:29:05.080Z,0.80
2023-02-17T04:31:32.023Z,0.75
2023-02-17T04:33:58.840Z,0.80
2023-02-17T04:36:25.545Z,0.80
2023-02-17T04:38:52.285Z,0.85
2023-02-17T04:41:18.970Z,0.90
2023-02-17T04:43:45.693Z,0.80
2023-02-17T04:46:12.420Z,1.02
2023-02-17T04:48:39.489Z,0.90
2023-02-17T04:51:06.348Z,1.10
2023-02-17T04:53:33.736Z,2.55
2023-02-17T04:56:00.536Z,1.98
2023-02-17T04:58:27.287Z,1.10
2023-02-17T05:00:53.998Z,1.50
2023-02-17T05:03:21.034Z,1.38
2023-02-17T05:05:47.747Z,1.50
2023-02-17T05:08:14.460Z,1.30
2023-02-17T05:10:41.143Z,1.48
2023-02-17T05:13:08.176Z,1.60
2023-02-17T05:15:35.176Z,1.40
2023-02-17T05:18:02.493Z,1.80
2023-02-17T05:20:29.543Z,1.88
2023-02-17T05:22:56.346Z,1.60
2023-02-17T05:25:23.106Z,1.50
2023-02-17T05:27:49.774Z,1.83
2023-02-17T05:30:16.889Z,2.15
2023-02-17T05:32:43.646Z,2.38
2023-02-17T05:35:10.633Z,2.67
2023-02-17T05:37:37.687Z,2.97
2023-02-17T05:40:04.873Z,2.60
2023-02-17T05:42:31.576Z,3.20
2023-02-17T05:44:58.284Z,4.00
2023-02-17T05:47:27.328Z,2.70
2023-02-17T05:49:54.355Z,3.38
2023-02-17T05:52:21.096Z,2.45
2023-02-17T05:54:47.843Z,3.35
2023-02-17T05:57:14.601Z,2.80
2023-02-17T05:59:41.395Z,3.35
2023-02-17T06:02:08.104Z,3.25
2023-02-17T06:04:34.860Z,2.75
2023-02-17T06:07:01.683Z,2.75
2023-02-17T06:09:28.477Z,2.50
2023-02-17T06:11:55.385Z,2.22
2023-02-17T06:14:22.121Z,2.00
2023-02-17T06:16:48.908Z,2.08
2023-02-17T06:19:15.600Z,1.67
2023-02-17T06:21:42.289Z,2.10
2023-02-17T06:24:09.031Z,2.13
2023-02-17T06:26:35.710Z,1.80
2023-02-17T06:29:02.419Z,1.80
2023-02-17T06:31:30.131Z,1.63
2023-02-17T06:33:56.886Z,1.67
2023-02-17T06:36:23.613Z,1.77
2023-02-17T06:38:50.495Z,1.50
2023-02-17T06:41:17.153Z,1.80
2023-02-17T06:43:43.917Z,1.40
2023-02-17T06:46:10.814Z,1.25
2023-02-17T06:48:37.616Z,1.20
2023-02-17T06:51:04.637Z,1.30
2023-02-17T06:53:31.353Z,1.30
2023-02-17T06:55:58.129Z,1.20
2023-02-17T06:58:24.817Z,1.40
2023-02-17T07:00:51.744Z,1.00
2023-02-17T07:03:18.472Z,1.10
2023-02-17T07:05:45.249Z,1.23
2023-02-17T07:08:11.984Z,1.30
2023-02-17T07:10:38.770Z,1.20
2023-02-17T07:13:05.495Z,1.35
2023-02-17T07:15:32.221Z,1.20
2023-02-17T07:17:58.923Z,1.10
2023-02-17T07:20:25.632Z,1.15
2023-02-17T07:22:52.282Z,1.17
2023-02-17T07:25:19.141Z,1.17
2023-02-17T07:27:45.832Z,1.10
2023-02-17T07:30:13.148Z,1.23
2023-02-17T07:32:39.884Z,1.20
2023-02-17T07:35:06.720Z,1.00
2023-02-17T07:37:34.227Z,0.90
2023-02-17T07:40:01.110Z,1.00
2023-02-17T07:42:28.630Z,1.00
2023-02-17T07:44:55.615Z,0.90
2023-02-17T07:47:22.273Z,0.98
2023-02-17T07:49:48.976Z,1.15
2023-02-17T07:52:18.179Z,1.05
2023-02-17T07:54:45.246Z,0.90
2023-02-17T07:57:11.989Z,1.00
2023-02-17T07:59:38.667Z,0.90
2023-02-17T08:02:05.422Z,0.90
2023-02-17T08:04:33.011Z,1.10
2023-02-17T08:06:59.767Z,1.00
2023-02-17T08:09:44.872Z,1.00
2023-02-17T08:12:35.980Z,0.90
2023-02-17T08:15:02.838Z,1.00
2023-02-17T08:17:30.188Z,0.93
2023-02-17T08:19:56.866Z,1.20
2023-02-17T08:22:23.565Z,1.13
2023-02-17T08:24:50.891Z,0.95
2023-02-17T08:27:18.877Z,1.00
2023-02-17T08:29:45.996Z,1.30
2023-02-17T08:32:14.680Z,1.00
2023-02-17T08:34:41.482Z,1.25
2023-02-17T08:37:08.672Z,0.95
2023-02-17T08:39:36.305Z,1.00
2023-02-17T08:42:04.415Z,1.15
2023-02-17T08:44:31.135Z,1.02
2023-02-17T08:46:57.941Z,1.27
2023-02-17T08:49:27.027Z,1.20
2023-02-17T08:51:53.984Z,1.60
2023-02-17T08:54:20.765Z,1.15
2023-02-17T08:56:47.509Z,1.52
2023-02-17T08:59:14.821Z,1.13
2023-02-17T09:01:42.662Z,1.05
2023-02-17T09:04:11.739Z,1.00
2023-02-17T09:06:56.957Z,1.20
2023-02-17T09:09:28.055Z,1.02
2023-02-17T09:11:57.188Z,1.10
2023-02-17T09:14:24.229Z,1.10
2023-02-17T09:16:52.126Z,1.17
2023-02-17T09:19:19.512Z,1.20
2023-02-17T09:21:46.361Z,1.55
2023-02-17T09:24:13.119Z,1.10
2023-02-17T09:26:39.958Z,1.00
2023-02-17T09:29:07.573Z,1.20
2023-02-17T09:31:36.417Z,1.23
2023-02-17T09:34:04.887Z,1.10
2023-02-17T09:36:38.637Z,1.25
2023-02-17T09:39:05.537Z,1.20
2023-02-17T09:41:38.110Z,1.13
2023-02-17T09:44:19.682Z,1.15
2023-02-17T09:47:01.884Z,1.50
2023-02-17T09:49:38.927Z,1.40
2023-02-17T09:52:24.133Z,1.50
2023-02-17T09:55:05.205Z,1.55
2023-02-17T09:57:44.602Z,1.58
2023-02-17T10:00:18.009Z,1.38
2023-02-17T10:03:07.694Z,1.95
2023-02-17T10:05:44.417Z,1.30
2023-02-17T10:08:21.389Z,1.30
2023-02-17T10:10:56.547Z,1.48
2023-02-17T10:13:27.786Z,1.60
2023-02-17T10:15:58.750Z,1.50
2023-02-17T10:18:48.544Z,1.60
2023-02-17T10:21:25.594Z,1.30
2023-02-17T10:23:52.884Z,1.35
2023-02-17T10:26:34.849Z,1.42
2023-02-17T10:29:19.195Z,1.25
2023-02-17T10:31:54.860Z,1.20
2023-02-17T10:34:41.520Z,1.60
2023-02-17T10:37:34.135Z,1.17
2023-02-17T10:40:02.707Z,1.42
2023-02-17T10:42:36.103Z,1.13
2023-02-17T10:45:21.471Z,1.13
2023-02-17T10:47:48.383Z,1.25
2023-02-17T10:50:20.358Z,1.63
2023-02-17T10:52:48.019Z,1.40
2023-02-17T10:55:23.831Z,1.42
2023-02-17T10:58:12.464Z,1.40
2023-02-17T11:00:39.204Z,1.65
2023-02-17T11:03:05.965Z,1.40
2023-02-17T11:05:34.805Z,1.40
2023-02-17T11:08:06.343Z,1.40
2023-02-17T11:10:36.999Z,1.30
2023-02-17T11:13:19.370Z,1.65
2023-02-17T11:15:47.929Z,1.33
2023-02-17T11:18:29.636Z,1.27
2023-02-17T11:21:09.807Z,1.42
2023-02-17T11:23:46.604Z,1.40
2023-02-17T11:26:21.773Z,1.27
2023-02-17T11:28:48.477Z,1.30
2023-02-17T11:31:28.038Z,1.20
2023-02-17T11:33:56.981Z,1.65
2023-02-17T11:36:27.434Z,1.20
2023-02-17T11:38:54.541Z,1.20
2023-02-17T11:41:22.158Z,1.40
2023-02-17T11:43:58.711Z,1.40
2023-02-17T11:46:33.918Z,1.70
2023-02-17T11:49:32.513Z,1.33
2023-02-17T11:52:23.089Z,1.73
2023-02-17T11:55:12.617Z,1.15
2023-02-17T11:58:03.788Z,1.25
2023-02-17T12:01:05.545Z,1.40
2023-02-17T12:04:09.168Z,1.38
2023-02-17T12:06:48.068Z,1.30
2023-02-17T12:09:51.800Z,1.30
2023-02-17T12:13:01.889Z,1.42
2023-02-17T12:16:01.088Z,1.30
2023-02-17T12:18:46.845Z,1.20
2023-02-17T12:21:31.613Z,1.63
2023-02-17T12:24:23.110Z,1.45
2023-02-17T12:27:27.606Z,1.27
2023-02-17T12:30:05.089Z,1.23
2023-02-17T12:32:47.063Z,1.60
2023-02-17T12:35:21.462Z,1.20
2023-02-17T12:37:59.057Z,1.55
2023-02-17T12:40:37.946Z,1.30
2023-02-17T12:43:25.805Z,1.27
2023-02-17T12:45:56.962Z,1.23
2023-02-17T12:48:37.289Z,1.20
2023-02-17T12:51:34.226Z,1.63
2023-02-17T12:54:07.445Z,1.20
2023-02-17T12:59:17.057Z,1.30
2023-02-17T13:01:50.803Z,1.23
2023-02-17T13:04:20.059Z,1.40
2023-02-17T13:06:53.824Z,1.20
2023-02-17T13:09:44.180Z,1.70
2023-02-17T13:12:23.178Z,1.40
2023-02-17T13:14:56.866Z,1.30
2023-02-17T13:17:51.743Z,1.30
2023-02-17T13:20:18.356Z,1.40
2023-02-17T13:22:46.240Z,1.98
2023-02-17T13:25:30.426Z,1.45
2023-02-17T13:28:01.939Z,1.30
2023-02-17T13:30:40.610Z,1.30
2023-02-17T13:33:15.162Z,1.40
2023-02-17T13:35:41.864Z,1.23
2023-02-17T13:38:10.418Z,1.23
2023-02-17T13:40:43.238Z,1.42
2023-02-17T13:43:20.084Z,1.50
2023-02-17T13:46:03.442Z,1.30
2023-02-17T13:48:35.283Z,1.40
2023-02-17T13:51:07.247Z,1.25
2023-02-17T13:53:40.058Z,1.38
2023-02-17T13:56:24.626Z,1.10
2023-02-17T13:58:51.342Z,1.13
2023-02-17T14:01:25.662Z,1.45
2023-02-17T14:03:55.219Z,1.42
2023-02-17T14:06:41.039Z,1.50
2023-02-17T14:09:23.094Z,1.27
2023-02-17T14:11:51.187Z,1.30
2023-02-17T14:14:18.688Z,1.30
2023-02-17T14:16:57.743Z,1.33
2023-02-17T14:19:24.690Z,1.35
2023-02-17T14:22:06.155Z,1.40
2023-02-17T14:24:35.352Z,1.77
2023-02-17T14:27:05.897Z,1.48
2023-02-17T14:29:44.168Z,1.35
2023-02-17T14:32:30.731Z,1.30
2023-02-17T14:35:12.719Z,1.10
2023-02-17T14:37:41.105Z,1.00
2023-02-17T14:40:16.992Z,1.13
2023-02-17T14:42:44.038Z,1.60
2023-02-17T14:45:10.972Z,1.00
2023-02-17T14:47:37.658Z,1.30
2023-02-17T14:50:04.756Z,1.40
2023-02-17T14:52:31.494Z,1.30
2023-02-17T14:54:59.505Z,1.20
2023-02-17T14:57:27.818Z,1.20
2023-02-17T14:59:57.766Z,1.20
2023-02-17T15:02:24.651Z,1.17
2023-02-17T15:04:51.440Z,1.30
2023-02-17T15:07:19.247Z,1.65
2023-02-17T15:09:47.639Z,1.75
2023-02-17T15:12:18.235Z,1.20
2023-02-17T15:14:47.086Z,1.20
2023-02-17T15:17:14.989Z,1.58
2023-02-17T15:19:44.903Z,1.25
2023-02-17T15:22:13.574Z,1.40
2023-02-17T15:24:41.156Z,1.60
2023-02-17T15:27:12.660Z,1.45
2023-02-17T15:29:39.349Z,1.23
2023-02-17T15:32:15.031Z,1.55
2023-02-17T15:34:41.823Z,1.50
2023-02-17T15:37:10.284Z,1.50
2023-02-17T15:39:37.070Z,1.10
2023-02-17T15:42:13.642Z,1.23
2023-02-17T15:44:45.737Z,1.40
2023-02-17T15:47:16.440Z,1.95
2023-02-17T15:49:43.302Z,1.70
2023-02-17T15:52:14.655Z,1.10
2023-02-17T15:54:42.883Z,1.25
2023-02-17T15:57:21.920Z,1.50
2023-02-17T15:59:48.986Z,1.25
2023-02-17T16:02:21.396Z,1.17
2023-02-17T16:04:48.466Z,1.10
2023-02-17T16:07:15.437Z,1.02
2023-02-17T16:09:42.485Z,1.10
2023-02-17T16:12:19.122Z,1.42
2023-02-17T16:14:45.911Z,1.23
2023-02-17T16:17:16.660Z,1.10
2023-02-17T16:19:43.889Z,1.10
2023-02-17T16:22:10.681Z,2.35
2023-02-17T16:24:37.487Z,1.52
2023-02-17T16:27:09.599Z,1.50
2023-02-17T16:29:36.533Z,1.10
2023-02-17T16:32:04.270Z,1.30
2023-02-17T16:34:34.792Z,1.55
2023-02-17T16:37:04.396Z,1.20
2023-02-17T16:39:31.178Z,1.20
2023-02-17T16:41:57.949Z,1.35
2023-02-17T16:44:24.825Z,1.30
2023-02-17T16:46:54.319Z,1.58
2023-02-17T16:49:28.408Z,1.50
2023-02-17T16:51:55.151Z,1.80
2023-02-17T16:54:21.885Z,1.35
2023-02-17T16:56:50.847Z,1.45
2023-02-17T16:59:20.595Z,1.30
2023-02-17T17:01:47.951Z,1.20
2023-02-17T17:04:15.680Z,1.42
2023-02-17T17:06:46.040Z,1.75
2023-02-17T17:09:21.299Z,1.70
2023-02-17T17:11:48.808Z,1.80
2023-02-17T17:14:15.983Z,2.13
2023-02-17T17:16:54.943Z,1.30
2023-02-17T17:19:21.749Z,1.15
2023-02-17T17:21:49.384Z,1.48
2023-02-17T17:24:17.529Z,1.73
2023-02-17T17:26:46.814Z,1.85
2023-02-17T17:29:15.503Z,1.50
2023-02-17T17:31:42.490Z,1.42
2023-02-17T17:34:09.626Z,1.45
2023-02-17T17:36:39.481Z,1.52
2023-02-17T17:39:08.602Z,1.40
2023-02-17T17:41:35.400Z,1.55
2023-02-17T17:44:02.117Z,2.05
2023-02-17T17:46:31.236Z,1.52
2023-02-17T17:48:59.546Z,1.65
2023-02-17T17:51:28.346Z,2.53
2023-02-17T17:53:55.612Z,1.40
2023-02-17T17:56:28.400Z,1.90
2023-02-17T17:58:56.055Z,2.38
2023-02-17T18:01:23.422Z,2.03
2023-02-17T18:03:50.959Z,1.83
2023-02-17T18:06:40.779Z,1.75
2023-02-17T18:09:12.004Z,1.92
2023-02-17T18:11:44.944Z,1.95
2023-02-17T18:14:13.996Z,1.70
2023-02-17T18:16:43.090Z,2.00
2023-02-17T18:19:10.830Z,1.65
2023-02-17T18:21:39.475Z,1.67
2023-02-17T18:24:07.522Z,2.30
2023-02-17T18:26:34.810Z,2.00
2023-02-17T18:29:01.694Z,1.63
2023-02-17T18:31:29.645Z,1.83
2023-02-17T18:33:56.764Z,1.90
2023-02-17T18:36:26.458Z,1.88
2023-02-17T18:38:53.628Z,1.80
2023-02-17T18:41:24.146Z,2.28
2023-02-17T18:43:51.115Z,1.95
2023-02-17T18:46:17.975Z,1.65
2023-02-17T18:48:45.263Z,3.17
2023-02-17T18:51:14.423Z,2.13
2023-02-17T18:53:41.638Z,2.45
2023-02-17T18:56:21.713Z,1.52
2023-02-17T18:58:55.265Z,2.30
2023-02-17T19:01:32.047Z,1.80
2023-02-17T19:03:59.153Z,1.95
2023-02-17T19:06:30.779Z,1.67
2023-02-17T19:08:58.557Z,1.73
2023-02-17T19:11:26.081Z,2.17
2023-02-17T19:13:53.389Z,2.08
2023-02-17T19:16:24.385Z,2.10
2023-02-17T19:18:51.993Z,1.77
2023-02-17T19:21:19.267Z,1.80
2023-02-17T19:23:46.424Z,1.60
2023-02-17T19:26:14.688Z,1.50
2023-02-17T19:28:42.379Z,1.50
2023-02-17T19:31:12.279Z,1.83
2023-02-17T19:33:39.164Z,1.50
2023-02-17T19:36:18.436Z,1.70
2023-02-17T19:38:46.048Z,1.80
2023-02-17T19:41:13.724Z,2.50
2023-02-17T19:43:41.219Z,2.22
2023-02-17T19:46:08.260Z,2.60
2023-02-17T19:48:35.187Z,2.10
2023-02-17T19:51:04.725Z,2.17
2023-02-17T19:53:32.223Z,2.08
2023-02-17T19:56:17.056Z,2.58
2023-02-17T19:58:44.988Z,1.98
2023-02-17T20:01:15.233Z,1.80
2023-02-17T20:03:42.643Z,1.70
2023-02-17T20:06:19.124Z,1.60
2023-02-17T20:08:46.664Z,1.90
2023-02-17T20:11:14.797Z,2.08
2023-02-17T20:13:46.217Z,2.13
2023-02-17T20:16:15.432Z,2.70
2023-02-17T20:18:44.950Z,2.33
2023-02-17T20:21:14.487Z,2.47
2023-02-17T20:23:41.581Z,2.10
2023-02-17T20:26:12.955Z,2.60
2023-02-17T20:28:39.641Z,2.60
2023-02-17T20:31:07.600Z,2.40
2023-02-17T20:33:34.839Z,2.63
2023-02-17T20:36:02.144Z,2.15
2023-02-17T20:38:28.848Z,2.28
2023-02-17T20:40:55.931Z,2.25
2023-02-17T20:43:22.620Z,2.78
2023-02-17T20:45:50.002Z,2.50
2023-02-17T20:48:16.898Z,2.58
2023-02-17T20:50:44.493Z,2.30
2023-02-17T20:53:11.509Z,2.25
2023-02-17T20:55:38.664Z,2.40
2023-02-17T20:58:05.672Z,2.05
2023-02-17T21:00:32.353Z,3.88
2023-02-17T21:02:59.163Z,2.08
2023-02-17T21:05:26.436Z,2.13
2023-02-17T21:07:53.353Z,2.30
2023-02-17T21:10:23.528Z,2.85
2023-02-17T21:12:50.981Z,2.45
2023-02-17T21:15:18.010Z,1.90
2023-02-17T21:17:45.171Z,2.08
2023-02-17T21:20:15.094Z,2.30
2023-02-17T21:22:41.848Z,2.60
2023-02-17T21:25:09.241Z,2.50
2023-02-17T21:27:36.791Z,2.88
2023-02-17T21:30:05.558Z,2.85
2023-02-17T21:32:32.316Z,3.28
2023-02-17T21:34:59.050Z,3.28
2023-02-17T21:37:25.806Z,3.08
2023-02-17T21:39:52.556Z,2.53
2023-02-17T21:42:39.228Z,3.50
2023-02-17T21:45:06.425Z,3.17
2023-02-17T21:47:33.637Z,3.58
2023-02-17T21:50:00.483Z,3.88
2023-02-17T21:52:27.337Z,4.53
2023-02-17T21:54:54.100Z,3.80
2023-02-17T21:57:20.844Z,3.85
2023-02-17T21:59:47.533Z,3.97
2023-02-17T22:02:14.244Z,3.38
2023-02-17T22:04:40.899Z,2.65
2023-02-17T22:07:07.601Z,2.75
2023-02-17T22:09:34.291Z,3.38
2023-02-17T22:12:01.143Z,3.28
2023-02-17T22:14:27.985Z,2.80
2023-02-17T22:16:54.799Z,3.67
2023-02-17T22:19:23.828Z,3.38
2023-02-17T22:21:51.849Z,4.00
2023-02-17T22:24:20.816Z,2.95
2023-02-17T22:26:48.774Z,3.05
2023-02-17T22:29:15.556Z,3.30
2023-02-17T22:31:42.346Z,3.10
2023-02-17T22:34:12.289Z,3.10
2023-02-17T22:36:39.206Z,2.65
2023-02-17T22:39:07.788Z,2.53
2023-02-17T22:41:36.013Z,3.00
2023-02-17T22:44:03.640Z,3.63
2023-02-17T22:46:31.104Z,3.45
2023-02-17T22:48:58.813Z,2.85
2023-02-17T22:51:30.842Z,3.30
2023-02-17T22:53:59.929Z,3.00
2023-02-17T22:56:27.149Z,3.00
2023-02-17T22:58:57.994Z,3.05
2023-02-17T23:01:25.328Z,3.15
2023-02-17T23:03:54.588Z,3.60
2023-02-17T23:06:25.054Z,3.35
2023-02-17T23:08:52.906Z,3.00
2023-02-17T23:11:40.739Z,3.10
2023-02-17T23:14:08.446Z,3.78
2023-02-17T23:16:35.607Z,3.83
2023-02-17T23:19:07.058Z,3.45
2023-02-17T23:21:33.806Z,3.65
2023-02-17T23:24:00.489Z,3.30
2023-02-17T23:26:27.266Z,3.45
2023-02-17T23:28:54.112Z,3.33
2023-02-17T23:31:20.936Z,3.35
2023-02-17T23:33:47.712Z,4.00
2023-02-17T23:36:15.236Z,3.75
2023-02-17T23:38:41.916Z,3.45
2023-02-17T23:41:08.608Z,3.50
2023-02-17T23:43:35.309Z,2.67
2023-02-17T23:46:02.084Z,2.60
2023-02-17T23:48:28.872Z,2.42
2023-02-17T23:51:04.576Z,2.33
2023-02-17T23:53:32.715Z,2.55
2023-02-17T23:56:06.711Z,2.25
2023-02-17T23:58:35.050Z,2.03
